createdAt,value
2018-07-13T00:00:27.837Z,8.73
2018-07-13T00:02:57.195Z,9.07
2018-07-13T00:05:26.273Z,8.90
2018-07-13T00:07:55.613Z,9.93
2018-07-13T00:10:24.746Z,9.03
2018-07-13T00:12:53.823Z,8.90
2018-07-13T00:15:23.335Z,9.13
2018-07-13T00:17:52.448Z,9.00
2018-07-13T00:20:21.586Z,9.43
2018-07-13T00:22:51.615Z,11.40
2018-07-13T00:25:20.747Z,8.40
2018-07-13T00:27:49.505Z,9.80
2018-07-13T00:30:18.599Z,8.97
2018-07-13T00:32:47.715Z,9.40
2018-07-13T00:35:16.849Z,8.70
2018-07-13T00:37:46.397Z,9.13
2018-07-13T00:40:15.491Z,9.60
2018-07-13T00:42:44.632Z,8.90
2018-07-13T00:45:13.489Z,8.77
2018-07-13T00:47:42.489Z,9.60
2018-07-13T00:50:12.315Z,8.87
2018-07-13T00:52:41.243Z,9.57
2018-07-13T00:55:10.319Z,9.57
2018-07-13T00:57:39.083Z,9.07
2018-07-13T01:00:08.338Z,10.03
2018-07-13T01:02:37.471Z,10.37
2018-07-13T01:05:06.588Z,9.60
2018-07-13T01:07:35.854Z,10.07
2018-07-13T01:10:04.990Z,8.93
2018-07-13T01:12:34.070Z,9.83
2018-07-13T01:15:03.836Z,10.17
2018-07-13T01:17:32.951Z,9.60
2018-07-13T01:20:02.471Z,9.90
2018-07-13T01:22:32.524Z,10.40
2018-07-13T01:25:01.956Z,9.90
2018-07-13T01:27:31.540Z,9.73
2018-07-13T01:30:00.798Z,8.27
2018-07-13T01:32:29.923Z,8.80
2018-07-13T01:34:59.025Z,9.00
2018-07-13T01:37:28.683Z,8.93
2018-07-13T01:39:57.795Z,9.50
2018-07-13T01:42:27.481Z,9.70
2018-07-13T01:44:57.253Z,9.53
2018-07-13T01:47:26.361Z,10.00
2018-07-13T01:49:55.439Z,10.57
2018-07-13T01:52:25.007Z,10.03
2018-07-13T01:54:54.721Z,8.80
2018-07-13T01:57:24.010Z,9.47
2018-07-13T01:59:53.485Z,9.70
2018-07-13T02:02:22.611Z,9.33
2018-07-13T02:04:51.815Z,9.53
2018-07-13T02:07:21.515Z,9.57
2018-07-13T02:09:53.432Z,9.40
2018-07-13T02:12:24.118Z,8.90
2018-07-13T02:14:53.341Z,9.60
2018-07-13T02:17:22.473Z,10.00
2018-07-13T02:19:51.795Z,9.83
2018-07-13T02:22:20.921Z,9.40
2018-07-13T02:24:49.683Z,9.57
2018-07-13T02:27:19.734Z,9.80
2018-07-13T02:29:48.813Z,10.77
2018-07-13T02:32:17.568Z,9.77
2018-07-13T02:34:46.661Z,10.30
2018-07-13T02:37:15.761Z,10.17
2018-07-13T02:39:44.902Z,10.80
2018-07-13T02:42:13.798Z,10.33
2018-07-13T02:44:42.870Z,9.90
2018-07-13T02:47:11.998Z,10.47
2018-07-13T02:49:42.544Z,10.37
2018-07-13T02:52:12.061Z,10.87
2018-07-13T02:54:41.202Z,10.13
2018-07-13T02:57:10.049Z,10.53
2018-07-13T02:59:39.713Z,11.43
2018-07-13T03:02:08.838Z,11.20
2018-07-13T03:04:38.924Z,10.77
2018-07-13T03:07:08.144Z,10.43
2018-07-13T03:09:37.254Z,9.80
2018-07-13T03:12:06.502Z,10.70
2018-07-13T03:14:35.559Z,10.10
2018-07-13T03:17:04.693Z,10.60
2018-07-13T03:19:34.589Z,10.10
2018-07-13T03:22:03.704Z,10.27
2018-07-13T03:24:32.808Z,10.43
2018-07-13T03:27:01.692Z,10.67
2018-07-13T03:29:31.380Z,10.53
2018-07-13T03:32:00.512Z,11.33
2018-07-13T03:34:29.959Z,10.83
2018-07-13T03:36:59.052Z,10.87
2018-07-13T03:39:28.254Z,10.27
2018-07-13T03:41:57.398Z,10.27
2018-07-13T03:44:27.080Z,10.53
2018-07-13T03:46:56.496Z,11.23
2018-07-13T03:49:25.253Z,9.77
2018-07-13T03:51:54.276Z,10.00
2018-07-13T03:54:23.530Z,10.90
2018-07-13T03:56:53.125Z,10.37
2018-07-13T03:59:22.827Z,9.97
2018-07-13T04:01:52.282Z,9.67
2018-07-13T04:04:21.574Z,10.10
2018-07-13T04:06:50.780Z,10.47
2018-07-13T04:09:20.610Z,11.00
2018-07-13T04:11:50.607Z,10.50
2018-07-13T04:14:20.346Z,10.70
2018-07-13T04:16:49.116Z,10.70
2018-07-13T04:19:17.824Z,10.87
2018-07-13T04:21:47.002Z,11.17
2018-07-13T04:24:15.777Z,10.23
2018-07-13T04:26:46.164Z,10.47
2018-07-13T04:29:16.000Z,10.60
2018-07-13T04:31:45.596Z,10.57
2018-07-13T04:34:14.796Z,10.50
2018-07-13T04:36:43.916Z,9.80
2018-07-13T04:39:13.852Z,10.07
2018-07-13T04:41:42.990Z,9.30
2018-07-13T04:44:12.166Z,9.60
2018-07-13T04:46:41.376Z,10.07
2018-07-13T04:49:10.610Z,10.70
2018-07-13T04:51:39.912Z,10.67
2018-07-13T04:54:09.189Z,9.90
2018-07-13T04:56:38.370Z,9.20
2018-07-13T04:59:07.678Z,10.10
2018-07-13T05:01:36.888Z,9.83
2018-07-13T05:04:06.590Z,10.30
2018-07-13T05:06:36.145Z,11.00
2018-07-13T05:09:07.198Z,10.70
2018-07-13T05:11:36.637Z,11.10
2018-07-13T05:14:05.813Z,11.13
2018-07-13T05:16:35.110Z,9.80
2018-07-13T05:19:04.357Z,11.00
2018-07-13T05:21:34.312Z,10.30
2018-07-13T05:24:03.492Z,11.10
2018-07-13T05:26:32.800Z,10.37
2018-07-13T05:29:01.571Z,10.77
2018-07-13T05:31:30.316Z,10.60
2018-07-13T05:34:00.246Z,11.83
2018-07-13T05:36:29.453Z,11.87
2018-07-13T05:38:59.136Z,11.53
2018-07-13T05:41:28.474Z,10.73
2018-07-13T05:43:57.725Z,11.13
2018-07-13T05:46:26.921Z,11.50
2018-07-13T05:48:56.162Z,10.30
2018-07-13T05:51:25.374Z,10.73
2018-07-13T05:53:54.577Z,10.77
2018-07-13T05:56:24.148Z,11.30
2018-07-13T05:58:53.594Z,11.00
2018-07-13T06:01:23.448Z,10.67
2018-07-13T06:03:52.729Z,10.23
2018-07-13T06:06:21.913Z,10.90
2018-07-13T06:08:51.125Z,11.50
2018-07-13T06:11:20.477Z,11.57
2018-07-13T06:13:49.621Z,10.47
2018-07-13T06:16:18.751Z,11.63
2018-07-13T06:18:48.012Z,12.50
2018-07-13T06:21:17.115Z,9.60
2018-07-13T06:23:46.265Z,9.83
2018-07-13T06:26:15.511Z,11.07
2018-07-13T06:28:44.643Z,10.97
2018-07-13T06:31:13.717Z,11.23
2018-07-13T06:33:42.984Z,10.80
2018-07-13T06:36:11.951Z,12.17
2018-07-13T06:38:41.069Z,12.80
2018-07-13T06:41:09.990Z,12.50
2018-07-13T06:43:39.119Z,12.37
2018-07-13T06:46:08.394Z,13.20
2018-07-13T06:48:37.695Z,12.07
2018-07-13T06:51:06.901Z,12.20
2018-07-13T06:53:36.625Z,12.17
2018-07-13T06:56:05.993Z,12.00
2018-07-13T06:58:46.299Z,12.03
2018-07-13T07:01:15.570Z,11.83
2018-07-13T07:04:53.849Z,11.80
2018-07-13T07:07:23.782Z,12.00
2018-07-13T07:09:54.700Z,11.50
2018-07-13T07:12:46.463Z,12.13
2018-07-13T07:15:15.633Z,10.87
2018-07-13T07:17:45.063Z,12.50
2018-07-13T07:20:14.535Z,10.93
2018-07-13T07:22:44.031Z,11.50
2018-07-13T07:25:13.536Z,11.27
2018-07-13T07:27:42.982Z,11.07
2018-07-13T07:30:12.234Z,10.20
2018-07-13T07:32:41.509Z,12.00
2018-07-13T07:35:11.169Z,11.93
2018-07-13T07:37:40.438Z,11.33
2018-07-13T07:40:09.688Z,10.63
2018-07-13T07:42:38.892Z,11.30
2018-07-13T07:45:09.052Z,10.97
2018-07-13T07:47:37.926Z,10.33
2018-07-13T07:50:07.193Z,10.03
2018-07-13T07:52:36.209Z,10.87
2018-07-13T07:55:05.569Z,10.00
2018-07-13T07:57:34.701Z,9.50
2018-07-13T08:00:04.604Z,9.83
2018-07-13T08:02:33.977Z,9.80
2018-07-13T08:05:03.113Z,8.70
2018-07-13T08:07:32.236Z,9.60
2018-07-13T08:10:01.718Z,10.00
2018-07-13T08:12:30.827Z,8.30
2018-07-13T08:14:59.937Z,9.33
2018-07-13T08:17:29.206Z,8.53
2018-07-13T08:19:58.462Z,10.20
2018-07-13T08:22:44.967Z,10.33
2018-07-13T08:25:14.949Z,9.53
2018-07-13T08:27:49.226Z,8.43
2018-07-13T08:31:21.339Z,9.40
2018-07-13T08:33:50.565Z,10.10
2018-07-13T08:36:19.704Z,9.40
2018-07-13T08:38:49.282Z,8.63
2018-07-13T08:41:18.782Z,9.37
2018-07-13T08:43:47.984Z,9.07
2018-07-13T08:46:17.098Z,9.43
2018-07-13T08:48:46.659Z,9.17
2018-07-13T08:51:15.961Z,8.97
2018-07-13T08:53:45.162Z,9.70
2018-07-13T08:56:15.147Z,8.40
2018-07-13T08:58:44.353Z,8.77
2018-07-13T09:01:13.490Z,8.17
2018-07-13T09:03:42.731Z,8.83
2018-07-13T09:06:11.933Z,8.27
2018-07-13T09:08:41.102Z,8.47
2018-07-13T09:11:10.356Z,7.77
2018-07-13T09:13:39.593Z,8.00
2018-07-13T09:16:08.771Z,8.20
2018-07-13T09:18:38.357Z,8.37
2018-07-13T09:21:07.455Z,7.63
2018-07-13T09:23:36.590Z,8.20
2018-07-13T09:26:05.829Z,7.40
2018-07-13T09:28:34.641Z,7.30
2018-07-13T09:31:03.711Z,7.73
2018-07-13T09:33:33.146Z,7.50
2018-07-13T09:36:01.949Z,7.37
2018-07-13T09:38:31.020Z,7.20
2018-07-13T09:41:00.541Z,7.00
2018-07-13T09:43:29.719Z,7.10
2018-07-13T09:45:58.903Z,7.50
2018-07-13T09:48:28.202Z,8.07
2018-07-13T09:50:57.445Z,8.37
2018-07-13T09:53:26.645Z,6.93
2018-07-13T09:55:56.911Z,6.80
2018-07-13T09:58:34.041Z,7.47
2018-07-13T10:01:08.612Z,7.33
2018-07-13T10:03:37.765Z,7.50
2018-07-13T10:06:07.001Z,7.87
2018-07-13T10:08:36.297Z,7.70
2018-07-13T10:11:05.416Z,7.00
2018-07-13T10:13:34.771Z,6.60
2018-07-13T10:16:04.007Z,6.93
2018-07-13T10:18:33.182Z,7.30
2018-07-13T10:21:02.953Z,6.90
2018-07-13T10:23:32.552Z,6.83
2018-07-13T10:26:05.825Z,7.80
2018-07-13T10:28:37.405Z,6.80
2018-07-13T10:31:06.761Z,7.07
2018-07-13T10:33:37.510Z,7.30
2018-07-13T10:36:08.323Z,6.30
2018-07-13T10:38:37.463Z,7.10
2018-07-13T10:41:06.321Z,6.47
2018-07-13T10:43:35.502Z,6.40
2018-07-13T10:46:04.734Z,6.70
2018-07-13T10:48:33.870Z,6.50
2018-07-13T10:51:04.240Z,5.97
2018-07-13T10:53:33.682Z,6.80
2018-07-13T10:56:03.310Z,5.70
2018-07-13T10:58:32.502Z,5.90
2018-07-13T11:01:01.534Z,5.70
2018-07-13T11:03:30.994Z,5.60
2018-07-13T11:06:00.121Z,5.50
2018-07-13T11:08:29.242Z,5.60
2018-07-13T11:10:58.453Z,5.40
2018-07-13T11:13:27.591Z,4.90
2018-07-13T11:15:56.705Z,5.07
2018-07-13T11:18:25.997Z,5.20
2018-07-13T11:20:55.082Z,4.90
2018-07-13T11:23:25.318Z,4.77
2018-07-13T11:25:54.935Z,4.60
2018-07-13T11:28:24.035Z,4.13
2018-07-13T11:30:53.139Z,4.10
2018-07-13T11:33:22.384Z,4.20
2018-07-13T11:35:51.488Z,3.70
2018-07-13T11:38:20.649Z,3.83
2018-07-13T11:40:49.834Z,4.17
2018-07-13T11:43:18.760Z,4.20
2018-07-13T11:45:47.774Z,3.90
2018-07-13T11:48:17.412Z,4.23
2018-07-13T11:50:46.582Z,4.10
2018-07-13T11:53:15.744Z,3.90
2018-07-13T11:55:44.802Z,4.60
2018-07-13T11:58:14.686Z,4.60
2018-07-13T12:00:43.802Z,4.30
2018-07-13T12:03:13.058Z,4.47
2018-07-13T12:05:42.144Z,4.03
2018-07-13T12:08:11.241Z,4.13
2018-07-13T12:10:40.436Z,4.17
2018-07-13T12:13:09.533Z,4.37
2018-07-13T12:15:38.675Z,4.20
2018-07-13T12:18:13.392Z,4.20
2018-07-13T12:20:42.537Z,4.00
2018-07-13T12:23:11.662Z,4.40
2018-07-13T12:25:40.532Z,4.10
2018-07-13T12:28:09.588Z,4.30
2018-07-13T12:30:38.722Z,4.43
2018-07-13T12:33:07.580Z,4.50
2018-07-13T12:35:36.602Z,4.47
2018-07-13T12:38:05.869Z,4.13
2018-07-13T12:40:35.051Z,4.73
2018-07-13T12:43:04.174Z,3.80
2018-07-13T12:45:33.522Z,3.77
2018-07-13T12:48:02.928Z,4.43
2018-07-13T12:50:32.109Z,3.67
2018-07-13T12:53:01.273Z,4.03
2018-07-13T12:55:30.732Z,3.90
2018-07-13T12:58:00.022Z,3.70
2018-07-13T13:00:29.222Z,3.97
2018-07-13T13:02:58.522Z,4.10
2018-07-13T13:05:27.817Z,4.10
2018-07-13T13:07:56.984Z,4.50
2018-07-13T13:10:26.116Z,3.97
2018-07-13T13:12:55.320Z,4.10
2018-07-13T13:15:24.499Z,4.10
2018-07-13T13:17:53.543Z,4.30
2018-07-13T13:20:23.540Z,3.93
2018-07-13T13:22:52.656Z,4.03
2018-07-13T13:25:21.786Z,3.87
2018-07-13T13:27:50.968Z,4.20
2018-07-13T13:30:19.771Z,3.40
2018-07-13T13:32:48.786Z,3.50
2018-07-13T13:35:18.074Z,3.93
2018-07-13T13:37:47.191Z,3.70
2018-07-13T13:40:16.337Z,3.43
2018-07-13T13:42:45.466Z,3.60
2018-07-13T13:45:14.581Z,3.20
2018-07-13T13:47:43.969Z,3.30
2018-07-13T13:50:13.214Z,3.40
2018-07-13T13:52:42.327Z,3.70
2018-07-13T13:55:11.434Z,3.50
2018-07-13T13:57:40.689Z,3.33
2018-07-13T14:00:09.786Z,2.70
2018-07-13T14:02:38.897Z,3.60
2018-07-13T14:05:08.258Z,3.03
2018-07-13T14:07:37.392Z,3.57
2018-07-13T14:10:06.568Z,3.30
2018-07-13T14:12:35.875Z,3.20
2018-07-13T14:15:05.044Z,3.50
2018-07-13T14:17:34.202Z,3.50
2018-07-13T14:20:04.108Z,3.90
2018-07-13T14:22:33.202Z,3.30
2018-07-13T14:25:02.951Z,3.83
2018-07-13T14:27:32.107Z,3.37
2018-07-13T14:30:00.892Z,2.93
2018-07-13T14:32:29.594Z,3.23
2018-07-13T14:34:58.926Z,3.50
2018-07-13T14:37:28.153Z,4.03
2018-07-13T14:39:57.283Z,3.57
2018-07-13T14:42:26.206Z,3.60
2018-07-13T14:44:55.270Z,3.90
2018-07-13T14:47:24.087Z,3.40
2018-07-13T14:49:54.038Z,3.40
2018-07-13T14:52:23.257Z,3.50
2018-07-13T14:54:52.069Z,3.50
2018-07-13T14:57:21.284Z,3.50
2018-07-13T14:59:50.376Z,3.43
2018-07-13T15:02:19.523Z,3.93
2018-07-13T15:04:48.988Z,3.93
2018-07-13T15:07:18.188Z,3.70
2018-07-13T15:09:47.304Z,3.80
2018-07-13T15:12:16.912Z,3.73
2018-07-13T15:14:46.111Z,3.10
2018-07-13T15:17:15.226Z,3.40
2018-07-13T15:19:44.581Z,3.87
2018-07-13T15:22:13.715Z,3.50
2018-07-13T15:24:42.893Z,3.73
2018-07-13T15:27:12.065Z,3.50
2018-07-13T15:29:41.275Z,3.60
2018-07-13T15:32:10.487Z,3.80
2018-07-13T15:34:39.647Z,3.60
2018-07-13T15:37:08.761Z,3.73
2018-07-13T15:39:38.487Z,3.47
2018-07-13T15:42:07.988Z,3.70
2018-07-13T15:44:37.212Z,3.80
2018-07-13T15:47:06.348Z,4.20
2018-07-13T15:49:35.620Z,3.80
2018-07-13T15:52:05.292Z,3.60
2018-07-13T15:54:35.682Z,4.00
2018-07-13T15:57:04.740Z,3.90
2018-07-13T15:59:33.822Z,4.40
2018-07-13T16:02:02.942Z,3.90
2018-07-13T16:04:32.204Z,3.87
2018-07-13T16:07:01.682Z,4.33
2018-07-13T16:09:30.841Z,3.97
2018-07-13T16:12:00.269Z,4.67
2018-07-13T16:14:29.448Z,4.03
2018-07-13T16:16:58.241Z,4.40
2018-07-13T16:19:27.450Z,4.27
2018-07-13T16:21:56.421Z,3.90
2018-07-13T16:24:25.977Z,3.87
2018-07-13T16:26:55.170Z,3.70
2018-07-13T16:29:26.089Z,3.60
2018-07-13T16:31:55.235Z,4.20
2018-07-13T16:34:24.507Z,4.10
2018-07-13T16:36:53.689Z,4.00
2018-07-13T16:39:22.814Z,3.90
2018-07-13T16:41:52.488Z,3.90
2018-07-13T16:44:21.591Z,4.57
2018-07-13T16:46:50.704Z,4.20
2018-07-13T16:49:19.890Z,4.07
2018-07-13T16:51:49.633Z,4.00
2018-07-13T16:54:18.866Z,4.00
2018-07-13T16:56:47.816Z,3.87
2018-07-13T16:59:17.738Z,4.10
2018-07-13T17:01:46.891Z,3.80
2018-07-13T17:04:16.137Z,4.30
2018-07-13T17:06:45.367Z,4.10
2018-07-13T17:09:14.121Z,4.10
2018-07-13T17:11:43.187Z,4.00
2018-07-13T17:14:12.495Z,4.03
2018-07-13T17:16:41.681Z,4.40
2018-07-13T17:19:10.829Z,3.70
2018-07-13T17:21:40.095Z,4.30
2018-07-13T17:24:09.215Z,3.83
2018-07-13T17:26:38.871Z,4.30
2018-07-13T17:29:08.905Z,4.10
2018-07-13T17:31:38.129Z,4.60
2018-07-13T17:34:07.411Z,4.40
2018-07-13T17:36:36.607Z,3.90
2018-07-13T17:39:06.331Z,8.80
2018-07-13T17:41:35.563Z,5.00
2018-07-13T17:44:06.124Z,4.57
2018-07-13T17:46:35.285Z,4.70
2018-07-13T17:49:04.394Z,6.20
2018-07-13T17:51:33.261Z,4.67
2018-07-13T17:54:02.923Z,4.27
2018-07-13T17:56:32.296Z,4.17
2018-07-13T17:59:01.575Z,4.40
2018-07-13T18:01:30.331Z,4.50
2018-07-13T18:03:59.343Z,4.87
2018-07-13T18:06:28.581Z,4.40
2018-07-13T18:08:57.713Z,4.40
2018-07-13T18:11:27.226Z,4.27
2018-07-13T18:13:56.531Z,3.90
2018-07-13T18:16:25.685Z,4.07
2018-07-13T18:18:54.823Z,3.90
2018-07-13T18:21:24.365Z,3.83
2018-07-13T18:23:53.132Z,3.83
2018-07-13T18:26:21.828Z,3.87
2018-07-13T18:28:51.321Z,4.10
2018-07-13T18:31:20.471Z,4.20
2018-07-13T18:33:49.626Z,4.17
2018-07-13T18:36:19.576Z,4.33
2018-07-13T18:38:49.533Z,4.20
2018-07-13T18:41:18.248Z,4.00
2018-07-13T18:43:47.313Z,4.40
2018-07-13T18:46:16.406Z,4.83
2018-07-13T18:48:45.516Z,4.43
2018-07-13T18:51:15.013Z,4.60
2018-07-13T18:53:44.110Z,4.37
2018-07-13T18:56:13.222Z,4.47
2018-07-13T18:58:42.508Z,4.97
2018-07-13T19:01:11.589Z,4.50
2018-07-13T19:03:40.690Z,5.60
2018-07-13T19:06:10.078Z,5.00
2018-07-13T19:08:39.308Z,5.03
2018-07-13T19:11:08.558Z,4.97
2018-07-13T19:13:37.850Z,4.77
2018-07-13T19:16:06.909Z,5.30
2018-07-13T19:18:35.655Z,5.03
2018-07-13T19:21:04.813Z,5.10
2018-07-13T19:23:33.931Z,4.90
2018-07-13T19:26:05.089Z,5.10
2018-07-13T19:28:34.391Z,5.30
2018-07-13T19:31:03.550Z,4.70
2018-07-13T19:33:32.573Z,5.03
2018-07-13T19:36:01.999Z,4.90
2018-07-13T19:38:31.085Z,4.83
2018-07-13T19:41:00.385Z,5.47
2018-07-13T19:43:29.501Z,5.03
2018-07-13T19:45:58.654Z,5.20
2018-07-13T19:48:27.875Z,5.10
2018-07-13T19:50:56.964Z,5.27
2018-07-13T19:53:26.093Z,4.83
2018-07-13T19:55:55.457Z,4.93
2018-07-13T19:58:24.576Z,5.57
2018-07-13T20:00:53.805Z,6.70
2018-07-13T20:03:23.926Z,5.80
2018-07-13T20:05:53.067Z,5.60
2018-07-13T20:08:22.181Z,5.50
2018-07-13T20:10:51.447Z,5.60
2018-07-13T20:13:20.591Z,6.07
2018-07-13T20:15:49.677Z,5.20
2018-07-13T20:18:18.899Z,5.60
2018-07-13T20:20:48.695Z,4.93
2018-07-13T20:23:17.793Z,5.10
2018-07-13T20:25:47.116Z,4.73
2018-07-13T20:28:16.254Z,5.30
2018-07-13T20:30:45.353Z,5.37
2018-07-13T20:33:14.636Z,4.93
2018-07-13T20:35:43.753Z,5.10
2018-07-13T20:38:12.916Z,5.07
2018-07-13T20:40:42.171Z,5.63
2018-07-13T20:43:11.281Z,5.43
2018-07-13T20:45:40.520Z,5.97
2018-07-13T20:48:09.642Z,6.10
2018-07-13T20:50:38.779Z,5.67
2018-07-13T20:53:08.164Z,6.10
2018-07-13T20:55:37.320Z,6.23
2018-07-13T20:58:06.516Z,6.30
2018-07-13T21:00:35.792Z,6.43
2018-07-13T21:03:04.823Z,6.20
2018-07-13T21:05:33.717Z,5.57
2018-07-13T21:08:02.986Z,6.07
2018-07-13T21:10:32.164Z,6.03
2018-07-13T21:13:01.715Z,5.93
2018-07-13T21:15:30.974Z,5.97
2018-07-13T21:18:00.168Z,5.73
2018-07-13T21:20:29.234Z,5.87
2018-07-13T21:22:58.597Z,6.73
2018-07-13T21:25:27.686Z,6.10
2018-07-13T21:27:56.782Z,5.80
2018-07-13T21:30:25.995Z,6.10
2018-07-13T21:32:55.077Z,6.20
2018-07-13T21:35:24.241Z,5.70
2018-07-13T21:37:53.856Z,6.13
2018-07-13T21:40:22.973Z,6.13
2018-07-13T21:42:52.182Z,6.17
2018-07-13T21:45:22.055Z,5.97
2018-07-13T21:47:50.735Z,6.23
2018-07-13T21:50:19.788Z,6.03
2018-07-13T21:52:49.283Z,5.57
2018-07-13T21:55:18.442Z,5.53
2018-07-13T21:57:47.625Z,6.83
2018-07-13T22:00:16.945Z,6.03
2018-07-13T22:02:46.039Z,6.67
2018-07-13T22:05:15.351Z,5.97
2018-07-13T22:07:44.557Z,5.97
2018-07-13T22:10:13.703Z,6.00
2018-07-13T22:12:42.820Z,6.60
2018-07-13T22:15:12.028Z,5.87
2018-07-13T22:17:41.211Z,6.30
2018-07-13T22:20:10.383Z,5.80
2018-07-13T22:22:39.715Z,5.10
2018-07-13T22:25:08.687Z,5.67
2018-07-13T22:27:37.801Z,6.80
2018-07-13T22:30:07.218Z,7.03
2018-07-13T22:32:36.359Z,6.83
2018-07-13T22:35:05.537Z,7.10
2018-07-13T22:37:35.161Z,6.70
2018-07-13T22:40:04.389Z,6.87
2018-07-13T22:42:33.469Z,7.37
2018-07-13T22:45:02.513Z,6.83
2018-07-13T22:47:31.503Z,6.67
2018-07-13T22:50:00.609Z,6.43
2018-07-13T22:52:30.023Z,6.10
2018-07-13T22:54:59.109Z,6.17
2018-07-13T22:57:28.256Z,6.67
2018-07-13T22:59:57.641Z,6.90
2018-07-13T23:02:26.698Z,6.53
2018-07-13T23:04:55.823Z,7.10
2018-07-13T23:07:25.566Z,6.10
2018-07-13T23:09:54.289Z,6.87
2018-07-13T23:12:23.281Z,5.90
2018-07-13T23:14:52.642Z,6.17
2018-07-13T23:17:21.699Z,6.00
2018-07-13T23:19:50.797Z,6.90
2018-07-13T23:22:20.412Z,7.27
2018-07-13T23:24:49.495Z,7.20
2018-07-13T23:27:18.605Z,6.60
2018-07-13T23:29:47.935Z,6.10
2018-07-13T23:32:17.029Z,6.37
2018-07-13T23:34:46.126Z,7.00
2018-07-13T23:37:15.555Z,6.63
2018-07-13T23:39:44.651Z,7.10
2018-07-13T23:42:13.957Z,6.63
2018-07-13T23:44:43.462Z,6.30
2018-07-13T23:47:13.259Z,7.90
2018-07-13T23:49:42.319Z,6.80
2018-07-13T23:52:11.424Z,7.47
2018-07-13T23:54:40.723Z,7.40
2018-07-13T23:57:09.490Z,7.80
2018-07-13T23:59:38.123Z,8.17
